Time,TemperatureF,DewpointF,PressureIn,WindDirection,WindDirectionDegrees,WindSpeedMPH,WindSpeedGustMPH,Humidity,HourlyPrecipIn,Conditions,Clouds,dailyrainin,SolarRadiationWatts/m^2,SoftwareType,DateUTC
2013-03-08 00:00:00,41.4,39.0,30.13,East,81,0.0,0.0,91,0.00,FEW,,0.00,0.0,WeatherDisplay:10.37,2013-03-08 05:00:00,
2013-03-08 00:01:00,41.4,39.0,30.13,East,80,0.0,0.0,91,0.00,FEW,,0.00,0.0,WeatherDisplay:10.37,2013-03-08 05:01:00,
2013-03-08 00:06:00,41.2,38.8,30.13,East,81,0.0,0.0,91,0.00,FEW,,0.00,0.0,WeatherDisplay:10.37,2013-03-08 05:06:00,
2013-03-08 00:11:00,41.3,38.9,30.13,East,81,0.0,0.0,91,0.00,FEW,,0.00,0.0,WeatherDisplay:10.37,2013-03-08 05:11:00,
2013-03-08 00:16:00,41.3,38.9,30.14,East,81,0.0,0.0,91,0.00,FEW,,0.00,0.0,WeatherDisplay:10.37,2013-03-08 05:16:00,
2013-03-08 00:21:00,41.2,38.8,30.14,East,80,0.0,0.0,91,0.00,FEW,,0.00,0.0,WeatherDisplay:10.37,2013-03-08 05:21:00,
2013-03-08 00:26:00,41.0,38.9,30.14,East,81,0.0,0.0,92,0.00,FEW,,0.00,0.0,WeatherDisplay:10.37,2013-03-08 05:26:00,
2013-03-08 00:31:00,41.0,38.6,30.14,East,80,0.0,0.0,91,0.00,FEW,,0.00,0.0,WeatherDisplay:10.37,2013-03-08 05:31:00,
2013-03-08 00:36:00,40.7,38.6,30.14,East,80,0.0,0.0,92,0.00,FEW,,0.00,0.0,WeatherDisplay:10.37,2013-03-08 05:36:00,
2013-03-08 00:41:00,40.7,38.6,30.14,East,80,0.0,0.0,92,0.00,FEW,,0.00,0.0,WeatherDisplay:10.37,2013-03-08 05:41:00,
2013-03-08 00:46:00,40.6,38.5,30.14,East,81,0.0,0.0,92,0.00,FEW,,0.00,0.0,WeatherDisplay:10.37,2013-03-08 05:46:00,
2013-03-08 00:51:00,40.6,38.5,30.14,East,81,0.0,0.0,92,0.00,FEW,,0.00,0.0,WeatherDisplay:10.37,2013-03-08 05:51:00,
2013-03-08 00:56:00,40.5,38.4,30.14,East,81,0.0,0.0,92,0.00,FEW,,0.00,0.0,WeatherDisplay:10.37,2013-03-08 05:56:00,
2013-03-08 01:01:00,40.6,38.5,30.14,East,80,0.0,0.0,92,0.00,CLR,,0.00,0.0,WeatherDisplay:10.37,2013-03-08 06:01:00,
2013-03-08 01:06:00,40.1,38.0,30.14,East,80,0.0,0.0,92,0.00,CLR,,0.00,0.0,WeatherDisplay:10.37,2013-03-08 06:06:00,
2013-03-08 01:12:00,40.1,38.0,30.14,East,81,0.0,0.0,92,0.00,CLR,,0.00,0.0,WeatherDisplay:10.37,2013-03-08 06:12:00,
2013-03-08 01:17:00,40.5,38.4,30.14,East,80,0.0,0.0,92,0.00,CLR,,0.00,0.0,WeatherDisplay:10.37,2013-03-08 06:17:00,
2013-03-08 01:22:00,40.0,37.6,30.14,East,81,0.0,0.0,91,0.00,CLR,,0.00,0.0,WeatherDisplay:10.37,2013-03-08 06:22:00,
2013-03-08 01:27:00,39.9,37.8,30.14,East,80,0.0,0.0,92,0.00,CLR,,0.00,0.0,WeatherDisplay:10.37,2013-03-08 06:27:00,
2013-03-08 01:32:00,40.1,38.0,30.14,East,80,0.0,0.0,92,0.00,CLR,,0.00,0.0,WeatherDisplay:10.37,2013-03-08 06:32:00,
2013-03-08 01:37:00,39.8,37.7,30.14,East,81,0.0,0.0,92,0.00,CLR,,0.00,0.0,WeatherDisplay:10.37,2013-03-08 06:37:00,
2013-03-08 01:42:00,39.9,37.8,30.14,East,81,0.0,0.0,92,0.00,CLR,,0.00,0.0,WeatherDisplay:10.37,2013-03-08 06:42:00,
2013-03-08 01:47:00,39.9,37.8,30.14,East,81,0.0,0.0,92,0.00,CLR,,0.00,0.0,WeatherDisplay:10.37,2013-03-08 06:47:00,
2013-03-08 01:52:00,39.5,37.4,30.14,East,80,0.0,0.0,92,0.00,CLR,,0.00,0.0,WeatherDisplay:10.37,2013-03-08 06:52:00,
2013-03-08 01:57:00,39.5,37.4,30.14,East,81,0.0,0.0,92,0.00,CLR,,0.00,0.0,WeatherDisplay:10.37,2013-03-08 06:57:00,
2013-03-08 02:02:00,39.7,37.6,30.14,East,81,0.0,0.0,92,0.00,CLR,,0.00,0.0,WeatherDisplay:10.37,2013-03-08 07:02:00,
2013-03-08 02:07:00,39.9,37.8,30.14,East,81,0.0,0.0,92,0.00,CLR,,0.00,0.0,WeatherDisplay:10.37,2013-03-08 07:07:00,
2013-03-08 02:12:00,39.6,37.5,30.14,East,80,0.0,0.0,92,0.00,CLR,,0.00,0.0,WeatherDisplay:10.37,2013-03-08 07:12:00,
2013-03-08 02:17:00,39.4,37.3,30.13,East,80,0.0,0.0,92,0.00,CLR,,0.00,0.0,WeatherDisplay:10.37,2013-03-08 07:17:00,
2013-03-08 02:22:00,39.4,37.3,30.13,East,80,0.0,0.0,92,0.00,CLR,,0.00,0.0,WeatherDisplay:10.37,2013-03-08 07:22:00,
2013-03-08 02:27:00,39.1,37.0,30.13,East,80,0.0,0.0,92,0.00,CLR,,0.00,0.0,WeatherDisplay:10.37,2013-03-08 07:27:00,
2013-03-08 02:32:00,39.1,37.0,30.13,East,81,0.0,0.0,92,0.00,CLR,,0.00,0.0,WeatherDisplay:10.37,2013-03-08 07:32:00,
2013-03-08 02:37:00,39.2,37.1,30.13,East,81,0.0,0.0,92,0.00,CLR,,0.00,0.0,WeatherDisplay:10.37,2013-03-08 07:37:00,
2013-03-08 02:42:00,39.5,37.4,30.13,East,81,0.0,0.0,92,0.00,CLR,,0.00,0.0,WeatherDisplay:10.37,2013-03-08 07:42:00,
2013-03-08 02:47:00,38.9,36.8,30.13,East,81,0.0,0.0,92,0.00,CLR,,0.00,0.0,WeatherDisplay:10.37,2013-03-08 07:47:00,
2013-03-08 02:52:00,38.9,36.8,30.13,East,81,0.0,0.0,92,0.00,CLR,,0.00,0.0,WeatherDisplay:10.37,2013-03-08 07:52:00,
2013-03-08 02:57:00,39.0,36.9,30.13,East,81,0.0,0.0,92,0.00,CLR,,0.00,0.0,WeatherDisplay:10.37,2013-03-08 07:57:00,
2013-03-08 03:04:00,38.6,36.5,30.12,East,81,0.0,0.0,92,0.00,CLR,,0.00,0.0,WeatherDisplay:10.37,2013-03-08 08:04:00,
2013-03-08 03:09:00,38.5,36.4,30.12,East,81,0.0,0.0,92,0.00,CLR,,0.00,0.0,WeatherDisplay:10.37,2013-03-08 08:09:00,
2013-03-08 03:14:00,38.6,36.5,30.12,East,81,0.0,0.0,92,0.00,CLR,,0.00,0.0,WeatherDisplay:10.37,2013-03-08 08:14:00,
2013-03-08 03:19:00,38.8,36.7,30.12,East,81,0.0,0.0,92,0.00,CLR,,0.00,0.0,WeatherDisplay:10.37,2013-03-08 08:19:00,
2013-03-08 03:24:00,38.8,36.7,30.12,East,81,0.0,0.0,92,0.00,CLR,,0.00,0.0,WeatherDisplay:10.37,2013-03-08 08:24:00,
2013-03-08 03:29:00,38.5,36.4,30.11,East,81,0.0,0.0,92,0.00,CLR,,0.00,0.0,WeatherDisplay:10.37,2013-03-08 08:29:00,
2013-03-08 03:34:00,38.6,36.5,30.11,East,81,0.0,0.0,92,0.00,CLR,,0.00,0.0,WeatherDisplay:10.37,2013-03-08 08:34:00,
2013-03-08 03:39:00,38.9,36.8,30.11,East,80,0.0,0.0,92,0.00,CLR,,0.00,0.0,WeatherDisplay:10.37,2013-03-08 08:39:00,
2013-03-08 03:44:00,38.7,36.6,30.11,East,81,0.0,0.0,92,0.00,CLR,,0.00,0.0,WeatherDisplay:10.37,2013-03-08 08:44:00,
2013-03-08 03:49:00,38.6,36.5,30.11,East,81,0.0,0.0,92,0.00,CLR,,0.00,0.0,WeatherDisplay:10.37,2013-03-08 08:49:00,
2013-03-08 03:54:00,38.5,36.4,30.11,East,81,0.0,0.0,92,0.00,CLR,,0.00,0.0,WeatherDisplay:10.37,2013-03-08 08:54:00,
2013-03-08 03:59:00,38.4,36.3,30.11,East,81,0.0,0.0,92,0.00,CLR,,0.00,0.0,WeatherDisplay:10.37,2013-03-08 08:59:00,
2013-03-08 04:04:00,38.5,36.7,30.11,East,81,0.0,0.0,93,0.00,CLR,,0.00,0.0,WeatherDisplay:10.37,2013-03-08 09:04:00,
2013-03-08 04:09:00,38.5,36.4,30.11,East,81,0.0,0.0,92,0.00,CLR,,0.00,0.0,WeatherDisplay:10.37,2013-03-08 09:09:00,
2013-03-08 04:14:00,38.1,36.0,30.11,East,81,0.0,0.0,92,0.00,CLR,,0.00,0.0,WeatherDisplay:10.37,2013-03-08 09:14:00,
2013-03-08 04:19:00,37.9,35.8,30.11,East,81,0.0,0.0,92,0.00,CLR,,0.00,0.0,WeatherDisplay:10.37,2013-03-08 09:19:00,
2013-03-08 04:24:00,38.1,36.3,30.11,East,81,0.0,0.0,93,0.00,CLR,,0.00,0.0,WeatherDisplay:10.37,2013-03-08 09:24:00,
2013-03-08 04:29:00,38.3,36.5,30.11,East,81,0.0,0.0,93,0.00,CLR,,0.00,0.0,WeatherDisplay:10.37,2013-03-08 09:29:00,
2013-03-08 04:35:00,38.3,36.5,30.11,East,81,0.0,0.0,93,0.00,CLR,,0.00,0.0,WeatherDisplay:10.37,2013-03-08 09:35:00,
2013-03-08 04:40:00,38.3,36.5,30.11,East,81,0.0,0.0,93,0.00,CLR,,0.00,0.0,WeatherDisplay:10.37,2013-03-08 09:40:00,
2013-03-08 04:45:00,38.4,36.6,30.12,East,80,0.0,0.0,93,0.00,CLR,,0.00,0.0,WeatherDisplay:10.37,2013-03-08 09:45:00,
2013-03-08 04:50:00,38.3,36.2,30.12,East,81,0.0,0.0,92,0.00,CLR,,0.00,0.0,WeatherDisplay:10.37,2013-03-08 09:50:00,
2013-03-08 04:55:00,38.1,36.3,30.12,East,81,0.0,0.0,93,0.00,CLR,,0.00,0.0,WeatherDisplay:10.37,2013-03-08 09:55:00,
2013-03-08 05:01:00,38.2,36.4,30.12,East,80,0.0,0.0,93,0.00,CLR,,0.00,0.0,WeatherDisplay:10.37,2013-03-08 10:01:00,
2013-03-08 05:06:00,38.3,36.2,30.12,East,81,0.0,0.0,92,0.00,CLR,,0.00,0.0,WeatherDisplay:10.37,2013-03-08 10:06:00,
2013-03-08 05:11:00,38.2,36.4,30.12,East,81,0.0,0.0,93,0.00,CLR,,0.00,0.0,WeatherDisplay:10.37,2013-03-08 10:11:00,
2013-03-08 05:16:00,38.3,36.5,30.13,East,81,0.0,0.0,93,0.00,CLR,,0.00,0.0,WeatherDisplay:10.37,2013-03-08 10:16:00,
2013-03-08 05:21:00,38.0,36.2,30.13,East,80,0.0,0.0,93,0.00,CLR,,0.00,0.0,WeatherDisplay:10.37,2013-03-08 10:21:00,
2013-03-08 05:26:00,38.0,36.2,30.13,East,81,0.0,0.0,93,0.00,CLR,,0.00,0.0,WeatherDisplay:10.37,2013-03-08 10:26:00,
2013-03-08 05:31:00,38.0,36.2,30.13,East,80,0.0,0.0,93,0.00,CLR,,0.00,0.0,WeatherDisplay:10.37,2013-03-08 10:31:00,
2013-03-08 05:36:00,38.2,36.4,30.13,East,81,0.0,0.0,93,0.00,CLR,,0.00,0.0,WeatherDisplay:10.37,2013-03-08 10:36:00,
2013-03-08 05:41:00,38.3,36.5,30.13,East,81,0.0,0.0,93,0.00,CLR,,0.00,0.0,WeatherDisplay:10.37,2013-03-08 10:41:00,
2013-03-08 05:46:00,38.2,36.4,30.13,East,81,0.0,0.0,93,0.00,CLR,,0.00,0.0,WeatherDisplay:10.37,2013-03-08 10:46:00,
2013-03-08 05:51:00,38.0,36.2,30.13,East,81,0.0,0.0,93,0.00,CLR,,0.00,0.0,WeatherDisplay:10.37,2013-03-08 10:51:00,
2013-03-08 05:56:00,38.1,36.3,30.13,East,81,0.0,0.0,93,0.00,CLR,,0.00,0.0,WeatherDisplay:10.37,2013-03-08 10:56:00,
2013-03-08 06:01:00,38.2,36.4,30.13,East,81,0.0,0.0,93,0.00,CLR,,0.00,0.0,WeatherDisplay:10.37,2013-03-08 11:01:00,
2013-03-08 06:06:00,38.0,36.2,30.13,East,81,0.0,0.0,93,0.00,CLR,,0.00,0.0,WeatherDisplay:10.37,2013-03-08 11:06:00,
2013-03-08 06:11:00,38.0,36.2,30.13,East,80,0.0,0.0,93,0.00,CLR,,0.00,0.0,WeatherDisplay:10.37,2013-03-08 11:11:00,
2013-03-08 06:16:00,37.9,36.1,30.13,East,81,0.0,0.0,93,0.00,CLR,,0.00,0.0,WeatherDisplay:10.37,2013-03-08 11:16:00,
2013-03-08 06:21:00,37.8,36.0,30.13,East,80,0.0,0.0,93,0.00,CLR,,0.00,0.0,WeatherDisplay:10.37,2013-03-08 11:21:00,
2013-03-08 06:26:00,37.8,36.0,30.13,East,80,0.0,0.0,93,0.00,CLR,,0.00,0.0,WeatherDisplay:10.37,2013-03-08 11:26:00,
2013-03-08 06:31:00,37.9,36.1,30.13,East,80,0.0,0.0,93,0.00,CLR,,0.00,0.0,WeatherDisplay:10.37,2013-03-08 11:31:00,
2013-03-08 06:36:00,37.8,35.7,30.13,East,81,0.0,0.0,92,0.00,CLR,,0.00,0.0,WeatherDisplay:10.37,2013-03-08 11:36:00,
2013-03-08 06:41:00,37.8,36.0,30.13,East,81,0.0,0.0,93,0.00,CLR,,0.00,0.0,WeatherDisplay:10.37,2013-03-08 11:41:00,
2013-03-08 06:46:00,37.7,35.9,30.13,East,81,0.0,0.0,93,0.00,CLR,,0.00,5.0,WeatherDisplay:10.37,2013-03-08 11:46:00,
2013-03-08 06:51:00,37.7,35.9,30.13,East,80,0.0,0.0,93,0.00,CLR,,0.00,9.0,WeatherDisplay:10.37,2013-03-08 11:51:00,
2013-03-08 06:56:00,37.5,35.4,30.13,East,80,0.0,0.0,92,0.00,CLR,,0.00,12.0,WeatherDisplay:10.37,2013-03-08 11:56:00,
2013-03-08 07:01:00,37.4,35.6,30.14,East,81,0.0,0.0,93,0.00,FEW,,0.00,16.0,WeatherDisplay:10.37,2013-03-08 12:01:00,
2013-03-08 07:06:00,37.7,35.9,30.14,East,81,0.0,0.0,93,0.00,FEW,,0.00,25.0,WeatherDisplay:10.37,2013-03-08 12:06:00,
2013-03-08 07:11:00,37.9,36.1,30.14,East,81,0.0,0.0,93,0.00,FEW,,0.00,28.0,WeatherDisplay:10.37,2013-03-08 12:11:00,
2013-03-08 07:16:00,38.2,36.4,30.15,East,81,0.0,0.0,93,0.00,FEW,,0.00,33.0,WeatherDisplay:10.37,2013-03-08 12:16:00,
2013-03-08 07:21:00,38.4,36.6,30.15,East,81,0.0,0.0,93,0.00,FEW,,0.00,39.0,WeatherDisplay:10.37,2013-03-08 12:21:00,
2013-03-08 07:26:00,38.8,36.9,30.15,East,81,0.0,0.0,93,0.00,FEW,,0.00,95.0,WeatherDisplay:10.37,2013-03-08 12:26:00,
2013-03-08 07:31:00,39.4,37.5,30.15,East,80,0.0,0.0,93,0.00,FEW,,0.00,107.0,WeatherDisplay:10.37,2013-03-08 12:31:00,
2013-03-08 07:36:00,40.1,38.2,30.15,East,81,0.0,0.0,93,0.00,FEW,,0.00,134.0,WeatherDisplay:10.37,2013-03-08 12:36:00,
2013-03-08 07:41:00,40.9,39.3,30.15,East,81,0.0,0.0,94,0.00,FEW,,0.00,149.0,WeatherDisplay:10.37,2013-03-08 12:41:00,
2013-03-08 07:46:00,41.6,40.0,30.16,East,81,0.0,0.0,94,0.00,FEW,,0.00,165.0,WeatherDisplay:10.37,2013-03-08 12:46:00,
2013-03-08 07:51:00,42.6,40.7,30.16,East,81,0.0,0.0,93,0.00,FEW,,0.00,185.0,WeatherDisplay:10.37,2013-03-08 12:51:00,
2013-03-08 07:56:00,43.7,41.8,30.16,East,81,0.0,0.0,93,0.00,FEW,,0.00,200.0,WeatherDisplay:10.37,2013-03-08 12:56:00,
2013-03-08 08:01:00,44.8,42.6,30.16,East,81,0.0,0.0,92,0.00,CLR,,0.00,216.0,WeatherDisplay:10.37,2013-03-08 13:01:00,
2013-03-08 08:06:00,45.7,43.5,30.16,East,81,0.0,0.0,92,0.00,CLR,,0.00,237.0,WeatherDisplay:10.37,2013-03-08 13:06:00,
2013-03-08 08:11:00,47.0,44.2,30.16,East,81,0.0,0.0,90,0.00,CLR,,0.00,253.0,WeatherDisplay:10.37,2013-03-08 13:11:00,
2013-03-08 08:16:00,48.5,45.1,30.17,East,80,0.0,0.0,88,0.00,CLR,,0.00,272.0,WeatherDisplay:10.37,2013-03-08 13:16:00,
2013-03-08 08:21:00,49.2,44.9,30.17,East,81,1.1,0.0,85,0.00,CLR,,0.00,287.0,WeatherDisplay:10.37,2013-03-08 13:21:00,
2013-03-08 08:26:00,50.2,45.2,30.17,East,81,2.3,2.3,83,0.00,CLR,,0.00,304.0,WeatherDisplay:10.37,2013-03-08 13:26:00,
2013-03-08 08:31:00,51.2,45.6,30.16,East,81,2.3,2.3,81,0.00,CLR,,0.00,325.0,WeatherDisplay:10.37,2013-03-08 13:31:00,
2013-03-08 08:36:00,51.7,45.1,30.16,East,81,1.1,0.0,78,0.00,CLR,,0.00,343.0,WeatherDisplay:10.37,2013-03-08 13:36:00,
2013-03-08 08:41:00,52.7,46.4,30.16,East,79,2.2,2.2,79,0.00,CLR,,0.00,362.0,WeatherDisplay:10.37,2013-03-08 13:41:00,
2013-03-08 08:46:00,53.3,45.6,30.16,East,79,1.1,1.1,75,0.00,CLR,,0.00,392.0,WeatherDisplay:10.37,2013-03-08 13:46:00,
2013-03-08 08:51:00,53.8,46.1,30.16,East,79,0.0,0.0,75,0.00,CLR,,0.00,424.0,WeatherDisplay:10.37,2013-03-08 13:51:00,
2013-03-08 08:56:00,54.6,45.8,30.16,East,79,0.0,0.2,72,0.00,CLR,,0.00,445.0,WeatherDisplay:10.37,2013-03-08 13:56:00,
2013-03-08 09:01:00,55.4,44.6,30.17,ENE,78,1.1,0.0,67,0.00,CLR,,0.00,466.0,WeatherDisplay:10.37,2013-03-08 14:01:00,
2013-03-08 09:06:00,56.2,44.6,30.17,ENE,78,1.1,0.0,65,0.00,CLR,,0.00,483.0,WeatherDisplay:10.37,2013-03-08 14:06:00,
2013-03-08 09:11:00,56.2,42.9,30.17,ENE,78,1.1,1.1,61,0.00,CLR,,0.00,503.0,WeatherDisplay:10.37,2013-03-08 14:11:00,
2013-03-08 09:16:00,56.8,44.3,30.16,ENE,72,0.0,0.3,63,0.00,CLR,,0.00,522.0,WeatherDisplay:10.37,2013-03-08 14:16:00,
2013-03-08 09:21:00,57.7,44.3,30.16,ENE,72,0.0,0.0,61,0.00,CLR,,0.00,538.0,WeatherDisplay:10.37,2013-03-08 14:21:00,
2013-03-08 09:26:00,58.6,45.2,30.16,ENE,72,1.1,1.1,61,0.00,CLR,,0.00,552.0,WeatherDisplay:10.37,2013-03-08 14:26:00,
2013-03-08 09:31:00,58.5,42.8,30.16,ENE,70,2.3,2.3,56,0.00,CLR,,0.00,573.0,WeatherDisplay:10.37,2013-03-08 14:31:00,
2013-03-08 09:36:00,59.3,44.5,30.16,NNE,17,5.8,5.8,58,0.00,CLR,,0.00,587.0,WeatherDisplay:10.37,2013-03-08 14:36:00,
2013-03-08 09:41:00,60.0,43.8,30.16,NNE,17,5.8,5.8,55,0.00,CLR,,0.00,605.0,WeatherDisplay:10.37,2013-03-08 14:41:00,
2013-03-08 09:46:00,60.4,43.7,30.16,NNE,13,5.8,5.8,54,0.00,CLR,,0.00,615.0,WeatherDisplay:10.37,2013-03-08 14:46:00,
2013-03-08 09:51:00,61.5,44.2,30.16,NNE,13,1.4,1.4,53,0.00,CLR,,0.00,629.0,WeatherDisplay:10.37,2013-03-08 14:51:00,
2013-03-08 09:57:00,61.5,43.7,30.16,NNE,13,1.4,2.0,52,0.00,CLR,,0.00,645.0,WeatherDisplay:10.37,2013-03-08 14:57:00,
2013-03-08 10:02:00,62.4,44.5,30.16,NNE,13,5.8,5.8,52,0.00,CLR,,0.00,656.0,WeatherDisplay:10.37,2013-03-08 15:02:00,
2013-03-08 10:07:00,62.9,45.0,30.16,WNW,282,1.1,1.1,52,0.00,CLR,,0.00,670.0,WeatherDisplay:10.37,2013-03-08 15:07:00,
2013-03-08 10:12:00,63.4,46.0,30.16,WNW,303,2.8,2.8,53,0.00,CLR,,0.00,677.0,WeatherDisplay:10.37,2013-03-08 15:12:00,
2013-03-08 10:17:00,63.5,45.0,30.16,North,5,1.4,1.4,51,0.00,CLR,,0.00,698.0,WeatherDisplay:10.37,2013-03-08 15:17:00,
2013-03-08 10:22:00,63.9,46.4,30.16,NNW,331,1.4,3.2,53,0.00,CLR,,0.00,707.0,WeatherDisplay:10.37,2013-03-08 15:22:00,
2013-03-08 10:27:00,64.4,44.8,30.16,NNE,26,5.8,5.8,49,0.00,CLR,,0.00,714.0,WeatherDisplay:10.37,2013-03-08 15:27:00,
2013-03-08 10:32:00,64.7,45.6,30.16,NE,48,5.8,5.8,50,0.00,CLR,,0.00,729.0,WeatherDisplay:10.37,2013-03-08 15:32:00,
2013-03-08 10:37:00,64.4,44.3,30.16,West,275,5.8,5.8,48,0.00,CLR,,0.00,742.0,WeatherDisplay:10.37,2013-03-08 15:37:00,
2013-03-08 10:42:00,64.9,43.6,30.16,WSW,244,2.3,2.3,46,0.00,CLR,,0.00,747.0,WeatherDisplay:10.37,2013-03-08 15:42:00,
2013-03-08 10:47:00,65.9,44.5,30.16,NW,311,2.3,2.4,46,0.00,CLR,,0.00,763.0,WeatherDisplay:10.37,2013-03-08 15:47:00,
2013-03-08 10:52:00,66.2,44.8,30.16,West,263,5.8,5.8,46,0.00,CLR,,0.00,768.0,WeatherDisplay:10.37,2013-03-08 15:52:00,
2013-03-08 10:57:00,65.9,42.8,30.16,NNE,15,5.8,5.8,43,0.00,CLR,,0.00,782.0,WeatherDisplay:10.37,2013-03-08 15:57:00,
2013-03-08 11:02:00,66.3,44.3,30.16,North,9,1.1,1.1,45,0.00,CLR,,0.00,793.0,WeatherDisplay:10.37,2013-03-08 16:02:00,
2013-03-08 11:07:00,67.1,43.2,30.16,NNE,21,5.8,5.8,42,0.00,CLR,,0.00,802.0,WeatherDisplay:10.37,2013-03-08 16:07:00,
2013-03-08 11:12:00,67.0,43.8,30.16,NNE,13,5.8,5.8,43,0.00,CLR,,0.00,809.0,WeatherDisplay:10.37,2013-03-08 16:12:00,
2013-03-08 11:17:00,66.8,42.3,30.17,NNW,341,2.3,2.3,41,0.00,CLR,,0.00,817.0,WeatherDisplay:10.37,2013-03-08 16:17:00,
2013-03-08 11:22:00,67.6,43.1,30.17,NE,35,2.8,2.8,41,0.00,CLR,,0.00,821.0,WeatherDisplay:10.37,2013-03-08 16:22:00,
2013-03-08 11:27:00,67.1,41.3,30.17,NNW,345,4.6,4.6,39,0.00,CLR,,0.00,837.0,WeatherDisplay:10.37,2013-03-08 16:27:00,
2013-03-08 11:32:00,68.1,42.9,30.17,NNW,348,5.8,5.8,40,0.00,CLR,,0.00,838.0,WeatherDisplay:10.37,2013-03-08 16:32:00,
2013-03-08 11:37:00,67.4,41.6,30.17,NE,56,3.3,3.3,39,0.00,CLR,,0.00,851.0,WeatherDisplay:10.37,2013-03-08 16:37:00,
2013-03-08 11:42:00,68.8,42.8,30.17,West,266,4.6,4.6,39,0.00,CLR,,0.00,851.0,WeatherDisplay:10.37,2013-03-08 16:42:00,
2013-03-08 11:47:00,68.5,43.2,30.17,North,5,1.4,1.4,40,0.00,CLR,,0.00,856.0,WeatherDisplay:10.37,2013-03-08 16:47:00,
2013-03-08 11:52:00,68.1,42.9,30.17,NNW,346,5.8,5.8,40,0.00,CLR,,0.00,858.0,WeatherDisplay:10.37,2013-03-08 16:52:00,
2013-03-08 11:57:00,68.1,42.2,30.17,NW,305,4.6,4.6,39,0.00,CLR,,0.00,863.0,WeatherDisplay:10.37,2013-03-08 16:57:00,
2013-03-08 12:02:00,68.6,43.3,30.17,North,5,5.8,5.8,40,0.00,CLR,,0.00,874.0,WeatherDisplay:10.37,2013-03-08 17:02:00,
2013-03-08 12:07:00,69.3,43.9,30.17,North,9,5.8,5.8,40,0.00,CLR,,0.00,882.0,WeatherDisplay:10.37,2013-03-08 17:07:00,
2013-03-08 12:12:00,69.2,44.5,30.17,SSE,159,4.6,4.6,41,0.00,CLR,,0.00,875.0,WeatherDisplay:10.37,2013-03-08 17:12:00,
2013-03-08 12:17:00,69.6,43.5,30.17,NW,306,2.8,2.8,39,0.00,CLR,,0.00,879.0,WeatherDisplay:10.37,2013-03-08 17:17:00,
2013-03-08 12:22:00,69.3,41.9,30.17,East,90,9.2,9.2,37,0.00,CLR,,0.00,881.0,WeatherDisplay:10.37,2013-03-08 17:22:00,
2013-03-08 12:27:00,69.9,44.5,30.17,SW,216,5.8,5.8,40,0.00,CLR,,0.00,870.0,WeatherDisplay:10.37,2013-03-08 17:27:00,
2013-03-08 12:32:00,69.5,42.1,30.16,North,360,8.3,8.3,37,0.00,CLR,,0.00,868.0,WeatherDisplay:10.37,2013-03-08 17:32:00,
2013-03-08 12:37:00,70.0,42.5,30.16,NE,40,8.1,8.9,37,0.00,CLR,,0.00,867.0,WeatherDisplay:10.37,2013-03-08 17:37:00,
2013-03-08 12:42:00,69.6,42.2,30.16,East,94,10.4,10.4,37,0.00,CLR,,0.00,867.0,WeatherDisplay:10.37,2013-03-08 17:42:00,
2013-03-08 12:47:00,69.9,41.7,30.15,North,11,9.2,9.2,36,0.00,CLR,,0.00,872.0,WeatherDisplay:10.37,2013-03-08 17:47:00,
2013-03-08 12:52:00,70.4,42.9,30.15,ENE,72,5.8,5.8,37,0.00,CLR,,0.00,868.0,WeatherDisplay:10.37,2013-03-08 17:52:00,
2013-03-08 12:57:00,71.0,44.1,30.15,North,349,8.1,8.5,38,0.00,CLR,,0.00,867.0,WeatherDisplay:10.37,2013-03-08 17:57:00,
2013-03-08 13:02:00,69.6,40.7,30.15,NNE,22,8.1,8.1,35,0.00,CLR,,0.00,863.0,WeatherDisplay:10.37,2013-03-08 18:02:00,
2013-03-08 13:07:00,69.9,41.7,30.15,WNW,298,5.8,5.8,36,0.00,CLR,,0.00,858.0,WeatherDisplay:10.37,2013-03-08 18:07:00,
2013-03-08 13:12:00,70.8,44.6,30.15,North,11,6.9,6.9,39,0.00,CLR,,0.00,851.0,WeatherDisplay:10.37,2013-03-08 18:12:00,
2013-03-08 13:17:00,71.2,42.9,30.14,NW,321,8.3,8.3,36,0.00,CLR,,0.00,838.0,WeatherDisplay:10.37,2013-03-08 18:17:00,
2013-03-08 13:22:00,70.9,41.9,30.14,NE,42,9.2,9.2,35,0.00,CLR,,0.00,840.0,WeatherDisplay:10.37,2013-03-08 18:22:00,
2013-03-08 13:27:00,70.8,41.8,30.14,NNW,329,8.1,8.1,35,0.00,CLR,,0.00,833.0,WeatherDisplay:10.37,2013-03-08 18:27:00,
2013-03-08 13:32:00,70.9,44.0,30.13,NNE,24,5.8,5.8,38,0.00,CLR,,0.00,821.0,WeatherDisplay:10.37,2013-03-08 18:32:00,
2013-03-08 13:37:00,71.1,42.0,30.13,NE,35,11.5,11.5,35,0.00,CLR,,0.00,817.0,WeatherDisplay:10.37,2013-03-08 18:37:00,
2013-03-08 13:42:00,71.8,42.7,30.13,NE,34,5.8,5.8,35,0.00,CLR,,0.00,812.0,WeatherDisplay:10.37,2013-03-08 18:42:00,
2013-03-08 13:47:00,71.1,42.0,30.12,North,355,9.2,9.2,35,0.00,CLR,,0.00,802.0,WeatherDisplay:10.37,2013-03-08 18:47:00,
2013-03-08 13:52:00,71.0,42.7,30.12,North,355,8.3,8.3,36,0.00,CLR,,0.00,795.0,WeatherDisplay:10.37,2013-03-08 18:52:00,
2013-03-08 13:57:00,70.8,41.0,30.12,NNW,340,1.1,1.1,34,0.00,CLR,,0.00,789.0,WeatherDisplay:10.37,2013-03-08 18:57:00,
2013-03-08 14:02:00,72.4,42.4,30.10,West,259,4.6,4.6,34,0.00,CLR,,0.00,773.0,WeatherDisplay:10.37,2013-03-08 19:02:00,
2013-03-08 14:07:00,72.5,42.5,30.10,ENE,62,12.7,12.7,34,0.00,CLR,,0.00,770.0,WeatherDisplay:10.37,2013-03-08 19:07:00,
2013-03-08 14:12:00,72.1,41.4,30.10,North,355,6.9,6.9,33,0.00,CLR,,0.00,763.0,WeatherDisplay:10.37,2013-03-08 19:12:00,
2013-03-08 14:17:00,71.3,42.2,30.10,NE,51,6.9,6.9,35,0.00,CLR,,0.00,752.0,WeatherDisplay:10.37,2013-03-08 19:17:00,
2013-03-08 14:22:00,72.7,44.2,30.10,ENE,76,9.2,9.2,36,0.00,CLR,,0.00,740.0,WeatherDisplay:10.37,2013-03-08 19:22:00,
2013-03-08 14:27:00,72.8,45.0,30.10,NNE,12,6.9,6.9,37,0.00,CLR,,0.00,728.0,WeatherDisplay:10.37,2013-03-08 19:27:00,
2013-03-08 14:32:00,71.0,47.4,30.09,North,360,6.9,6.9,43,0.00,CLR,,0.00,719.0,WeatherDisplay:10.37,2013-03-08 19:32:00,
2013-03-08 14:37:00,70.3,49.1,30.09,NNW,348,11.5,11.5,47,0.00,CLR,,0.00,703.0,WeatherDisplay:10.37,2013-03-08 19:37:00,
2013-03-08 14:42:00,71.1,48.7,30.09,NNW,345,11.5,11.5,45,0.00,CLR,,0.00,686.0,WeatherDisplay:10.37,2013-03-08 19:42:00,
2013-03-08 14:47:00,70.1,50.6,30.09,NE,53,8.1,8.1,50,0.00,CLR,,0.00,668.0,WeatherDisplay:10.37,2013-03-08 19:47:00,
2013-03-08 14:52:00,70.1,51.1,30.09,East,86,9.2,9.2,51,0.00,CLR,,0.00,661.0,WeatherDisplay:10.37,2013-03-08 19:52:00,
2013-03-08 14:57:00,70.2,50.7,30.09,East,86,12.7,12.7,50,0.00,CLR,,0.00,645.0,WeatherDisplay:10.37,2013-03-08 19:57:00,
2013-03-08 15:02:00,69.7,50.2,30.09,NNE,14,12.7,12.7,50,0.00,CLR,,0.00,635.0,WeatherDisplay:10.37,2013-03-08 20:02:00,
2013-03-08 15:08:00,68.8,49.9,30.09,NE,38,16.1,16.1,51,0.00,CLR,,0.00,621.0,WeatherDisplay:10.37,2013-03-08 20:08:00,
2013-03-08 15:13:00,68.0,51.2,30.09,East,96,15.0,15.0,55,0.00,CLR,,0.00,603.0,WeatherDisplay:10.37,2013-03-08 20:13:00,
2013-03-08 15:18:00,67.7,50.9,30.09,East,82,18.4,18.4,55,0.00,CLR,,0.00,589.0,WeatherDisplay:10.37,2013-03-08 20:18:00,
2013-03-08 15:23:00,66.7,51.5,30.09,East,88,12.7,12.7,58,0.00,CLR,,0.00,202.0,WeatherDisplay:10.37,2013-03-08 20:23:00,
2013-03-08 15:28:00,65.8,50.6,30.09,NE,53,15.0,15.0,58,0.00,CLR,,0.00,255.0,WeatherDisplay:10.37,2013-03-08 20:28:00,
2013-03-08 15:33:00,65.0,50.3,30.09,NNE,26,9.2,9.2,59,0.00,CLR,,0.00,98.0,WeatherDisplay:10.37,2013-03-08 20:33:00,
2013-03-08 15:38:00,64.5,50.3,30.09,North,355,15.0,15.0,60,0.00,CLR,,0.00,160.0,WeatherDisplay:10.37,2013-03-08 20:38:00,
2013-03-08 15:43:00,63.6,50.3,30.09,ENE,60,12.7,12.7,62,0.00,CLR,,0.00,160.0,WeatherDisplay:10.37,2013-03-08 20:43:00,
2013-03-08 15:48:00,63.3,50.1,30.10,NNE,22,11.5,11.5,62,0.00,CLR,,0.00,192.0,WeatherDisplay:10.37,2013-03-08 20:48:00,
2013-03-08 15:53:00,63.4,50.1,30.10,ENE,57,13.8,13.8,62,0.00,CLR,,0.00,123.0,WeatherDisplay:10.37,2013-03-08 20:53:00,
2013-03-08 15:58:00,62.9,49.7,30.10,North,9,13.8,13.9,62,0.00,CLR,,0.00,127.0,WeatherDisplay:10.37,2013-03-08 20:58:00,
2013-03-08 16:03:00,63.1,50.3,30.10,ESE,109,8.1,8.1,63,0.00,CLR,,0.00,299.0,WeatherDisplay:10.37,2013-03-08 21:03:00,
2013-03-08 16:08:00,62.9,50.1,30.10,ENE,59,9.2,9.2,63,0.00,CLR,,0.00,97.0,WeatherDisplay:10.37,2013-03-08 21:08:00,
2013-03-08 16:13:00,62.8,50.4,30.10,NE,45,6.9,6.9,64,0.00,CLR,,0.00,81.0,WeatherDisplay:10.37,2013-03-08 21:13:00,
2013-03-08 16:18:00,62.8,50.4,30.09,East,96,6.9,6.9,64,0.00,CLR,,0.00,100.0,WeatherDisplay:10.37,2013-03-08 21:18:00,
2013-03-08 16:23:00,62.5,50.2,30.09,ENE,57,6.9,6.9,64,0.00,CLR,,0.00,327.0,WeatherDisplay:10.37,2013-03-08 21:23:00,
2013-03-08 16:28:00,62.4,50.5,30.09,NNE,17,11.5,11.5,65,0.00,CLR,,0.00,72.0,WeatherDisplay:10.37,2013-03-08 21:28:00,
2013-03-08 16:33:00,61.9,49.6,30.09,North,5,11.5,11.5,64,0.00,CLR,,0.00,260.0,WeatherDisplay:10.37,2013-03-08 21:33:00,
2013-03-08 16:38:00,62.1,49.8,30.09,ENE,57,5.8,5.8,64,0.00,CLR,,0.00,149.0,WeatherDisplay:10.37,2013-03-08 21:38:00,
2013-03-08 16:43:00,61.8,49.9,30.09,East,85,6.9,6.9,65,0.00,CLR,,0.00,63.0,WeatherDisplay:10.37,2013-03-08 21:43:00,
2013-03-08 16:48:00,61.7,49.8,30.09,ESE,112,6.9,6.9,65,0.00,CLR,,0.00,65.0,WeatherDisplay:10.37,2013-03-08 21:48:00,
2013-03-08 16:53:00,61.5,50.0,30.09,NE,42,12.7,12.7,66,0.00,CLR,,0.00,98.0,WeatherDisplay:10.37,2013-03-08 21:53:00,
2013-03-08 16:58:00,61.0,49.6,30.09,ESE,109,8.1,8.1,66,0.00,CLR,,0.00,102.0,WeatherDisplay:10.37,2013-03-08 21:58:00,
2013-03-08 17:03:00,60.9,49.9,30.09,East,97,10.4,10.4,67,0.00,FEW,,0.00,179.0,WeatherDisplay:10.37,2013-03-08 22:03:00,
2013-03-08 17:08:00,60.6,50.0,30.09,ENE,71,6.9,6.9,68,0.00,FEW,,0.00,53.0,WeatherDisplay:10.37,2013-03-08 22:08:00,
2013-03-08 17:13:00,60.3,49.7,30.09,East,92,6.9,6.9,68,0.00,FEW,,0.00,49.0,WeatherDisplay:10.37,2013-03-08 22:13:00,
2013-03-08 17:18:00,60.1,49.9,30.09,NE,47,8.3,8.3,69,0.00,FEW,,0.00,47.0,WeatherDisplay:10.37,2013-03-08 22:18:00,
2013-03-08 17:23:00,59.8,49.6,30.09,East,93,5.8,5.8,69,0.00,FEW,,0.00,44.0,WeatherDisplay:10.37,2013-03-08 22:23:00,
2013-03-08 17:28:00,59.6,49.4,30.09,ESE,105,9.2,9.2,69,0.00,FEW,,0.00,40.0,WeatherDisplay:10.37,2013-03-08 22:28:00,
2013-03-08 17:33:00,59.3,49.1,30.10,East,84,6.9,6.9,69,0.00,FEW,,0.00,39.0,WeatherDisplay:10.37,2013-03-08 22:33:00,
2013-03-08 17:38:00,59.1,49.3,30.10,ENE,68,5.8,5.8,70,0.00,FEW,,0.00,39.0,WeatherDisplay:10.37,2013-03-08 22:38:00,
2013-03-08 17:43:00,58.9,49.1,30.10,ESE,103,10.4,10.4,70,0.00,FEW,,0.00,37.0,WeatherDisplay:10.37,2013-03-08 22:43:00,
2013-03-08 17:48:00,58.7,48.9,30.10,East,93,5.8,5.8,70,0.00,FEW,,0.00,33.0,WeatherDisplay:10.37,2013-03-08 22:48:00,
2013-03-08 17:53:00,58.5,48.7,30.10,East,88,7.7,7.7,70,0.00,FEW,,0.00,30.0,WeatherDisplay:10.37,2013-03-08 22:53:00,
2013-03-08 17:58:00,58.3,48.9,30.10,East,97,6.9,6.9,71,0.00,FEW,,0.00,26.0,WeatherDisplay:10.37,2013-03-08 22:58:00,
2013-03-08 18:03:00,58.0,49.0,30.10,East,79,3.3,3.3,72,0.00,FEW,,0.00,23.0,WeatherDisplay:10.37,2013-03-08 23:03:00,
2013-03-08 18:08:00,57.6,48.6,30.10,East,83,6.6,6.6,72,0.00,FEW,,0.00,21.0,WeatherDisplay:10.37,2013-03-08 23:08:00,
2013-03-08 18:13:00,57.4,48.8,30.10,East,88,4.6,4.6,73,0.00,FEW,,0.00,18.0,WeatherDisplay:10.37,2013-03-08 23:13:00,
2013-03-08 18:18:00,57.1,48.5,30.10,NE,38,5.8,5.8,73,0.00,FEW,,0.00,12.0,WeatherDisplay:10.37,2013-03-08 23:18:00,
2013-03-08 18:23:00,56.9,48.7,30.10,NE,50,5.8,5.8,74,0.00,FEW,,0.00,9.0,WeatherDisplay:10.37,2013-03-08 23:23:00,
2013-03-08 18:28:00,56.5,48.7,30.10,NE,50,1.1,1.1,75,0.00,FEW,,0.00,5.0,WeatherDisplay:10.37,2013-03-08 23:28:00,
2013-03-08 18:33:00,56.1,48.3,30.11,NE,50,2.8,2.8,75,0.00,FEW,,0.00,0.0,WeatherDisplay:10.37,2013-03-08 23:33:00,
2013-03-08 18:38:00,55.9,48.4,30.11,NE,50,1.4,1.4,76,0.00,FEW,,0.00,0.0,WeatherDisplay:10.37,2013-03-08 23:38:00,
2013-03-08 18:43:00,55.5,48.1,30.11,NE,50,1.4,1.4,76,0.00,FEW,,0.00,0.0,WeatherDisplay:10.37,2013-03-08 23:43:00,
2013-03-08 18:48:00,55.1,48.0,30.11,NE,50,1.4,1.4,77,0.00,FEW,,0.00,0.0,WeatherDisplay:10.37,2013-03-08 23:48:00,
2013-03-08 18:53:00,54.4,47.7,30.11,NE,50,1.1,0.0,78,0.00,FEW,,0.00,0.0,WeatherDisplay:10.37,2013-03-08 23:53:00,
2013-03-08 18:58:00,54.0,48.0,30.11,NE,50,0.0,0.0,80,0.00,FEW,,0.00,0.0,WeatherDisplay:10.37,2013-03-08 23:58:00,
2013-03-08 19:03:00,53.5,47.5,30.12,NE,50,0.0,0.0,80,0.00,FEW,,0.00,0.0,WeatherDisplay:10.37,2013-03-09 00:03:00,
2013-03-08 19:08:00,52.7,47.0,30.12,NE,50,0.0,0.0,81,0.00,FEW,,0.00,0.0,WeatherDisplay:10.37,2013-03-09 00:08:00,
2013-03-08 19:13:00,52.5,47.5,30.12,NE,50,0.0,0.0,83,0.00,FEW,,0.00,0.0,WeatherDisplay:10.37,2013-03-09 00:13:00,
2013-03-08 19:18:00,52.4,47.4,30.12,NE,50,0.0,0.0,83,0.00,FEW,,0.00,0.0,WeatherDisplay:10.37,2013-03-09 00:18:00,
2013-03-08 19:23:00,52.1,47.4,30.12,NE,50,0.0,0.0,84,0.00,FEW,,0.00,0.0,WeatherDisplay:10.37,2013-03-09 00:23:00,
2013-03-08 19:28:00,51.7,47.0,30.12,NE,50,0.0,0.0,84,0.00,FEW,,0.00,0.0,WeatherDisplay:10.37,2013-03-09 00:28:00,
2013-03-08 19:33:00,51.4,46.7,30.13,NE,50,0.0,0.0,84,0.00,FEW,,0.00,0.0,WeatherDisplay:10.37,2013-03-09 00:33:00,
2013-03-08 19:38:00,51.0,46.6,30.13,NE,50,0.0,0.0,85,0.00,FEW,,0.00,0.0,WeatherDisplay:10.37,2013-03-09 00:38:00,
2013-03-08 19:43:00,50.8,46.5,30.13,NE,50,0.0,0.0,85,0.00,FEW,,0.00,0.0,WeatherDisplay:10.37,2013-03-09 00:43:00,
2013-03-08 19:48:00,50.4,46.4,30.14,NE,50,0.0,0.0,86,0.00,FEW,,0.00,0.0,WeatherDisplay:10.37,2013-03-09 00:48:00,
2013-03-08 19:53:00,50.3,46.3,30.14,NE,50,0.0,0.0,86,0.00,FEW,,0.00,0.0,WeatherDisplay:10.37,2013-03-09 00:53:00,
2013-03-08 19:58:00,50.1,46.1,30.14,NE,50,0.0,0.0,86,0.00,FEW,,0.00,0.0,WeatherDisplay:10.37,2013-03-09 00:58:00,
2013-03-08 20:03:00,50.2,46.5,30.15,NE,50,0.0,0.0,87,0.00,FEW,,0.00,0.0,WeatherDisplay:10.37,2013-03-09 01:03:00,
2013-03-08 20:08:00,50.1,46.4,30.15,NE,50,0.0,0.0,87,0.00,FEW,,0.00,0.0,WeatherDisplay:10.37,2013-03-09 01:08:00,
2013-03-08 20:13:00,49.8,46.1,30.15,NE,50,0.0,0.0,87,0.00,FEW,,0.00,0.0,WeatherDisplay:10.37,2013-03-09 01:13:00,
2013-03-08 20:18:00,49.8,46.1,30.15,NE,50,0.0,0.0,87,0.00,FEW,,0.00,0.0,WeatherDisplay:10.37,2013-03-09 01:18:00,
2013-03-08 20:23:00,49.7,46.3,30.15,NE,50,0.0,0.0,88,0.00,FEW,,0.00,0.0,WeatherDisplay:10.37,2013-03-09 01:23:00,
2013-03-08 20:28:00,49.5,46.1,30.15,NE,50,0.0,0.0,88,0.00,FEW,,0.00,0.0,WeatherDisplay:10.37,2013-03-09 01:28:00,
2013-03-08 20:34:00,48.8,45.1,30.16,NE,50,0.0,0.0,87,0.00,FEW,,0.00,0.0,WeatherDisplay:10.37,2013-03-09 01:34:00,
2013-03-08 20:39:00,48.7,45.6,30.16,NE,50,0.0,0.0,89,0.00,FEW,,0.00,0.0,WeatherDisplay:10.37,2013-03-09 01:39:00,
2013-03-08 20:44:00,48.6,45.2,30.16,NE,50,0.0,0.0,88,0.00,FEW,,0.00,0.0,WeatherDisplay:10.37,2013-03-09 01:44:00,
2013-03-08 20:49:00,48.2,45.1,30.16,NE,50,0.0,0.0,89,0.00,FEW,,0.00,0.0,WeatherDisplay:10.37,2013-03-09 01:49:00,
2013-03-08 20:54:00,48.4,45.3,30.16,NE,50,0.0,0.0,89,0.00,FEW,,0.00,0.0,WeatherDisplay:10.37,2013-03-09 01:54:00,
2013-03-08 20:59:00,47.9,44.8,30.16,NE,50,0.0,0.0,89,0.00,FEW,,0.00,0.0,WeatherDisplay:10.37,2013-03-09 01:59:00,
2013-03-08 21:04:00,47.9,45.1,30.16,NE,50,0.0,0.0,90,0.00,CLR,,0.00,0.0,WeatherDisplay:10.37,2013-03-09 02:04:00,
2013-03-08 21:09:00,47.6,44.5,30.16,NE,50,0.0,0.0,89,0.00,CLR,,0.00,0.0,WeatherDisplay:10.37,2013-03-09 02:09:00,
2013-03-08 21:14:00,47.5,44.7,30.16,NE,50,0.0,0.0,90,0.00,CLR,,0.00,0.0,WeatherDisplay:10.37,2013-03-09 02:14:00,
2013-03-08 21:19:00,47.5,44.7,30.16,NE,50,0.0,0.0,90,0.00,CLR,,0.00,0.0,WeatherDisplay:10.37,2013-03-09 02:19:00,
2013-03-08 21:24:00,47.2,44.4,30.16,NE,50,0.0,0.0,90,0.00,CLR,,0.00,0.0,WeatherDisplay:10.37,2013-03-09 02:24:00,
2013-03-08 21:29:00,47.4,44.9,30.16,NE,50,0.0,0.0,91,0.00,CLR,,0.00,0.0,WeatherDisplay:10.37,2013-03-09 02:29:00,
2013-03-08 21:34:00,47.2,44.7,30.16,NE,50,0.0,0.0,91,0.00,CLR,,0.00,0.0,WeatherDisplay:10.37,2013-03-09 02:34:00,
2013-03-08 21:39:00,46.9,44.1,30.16,NE,50,0.0,0.0,90,0.00,CLR,,0.00,0.0,WeatherDisplay:10.37,2013-03-09 02:39:00,
2013-03-08 21:44:00,46.7,44.2,30.17,NE,50,0.0,0.0,91,0.00,CLR,,0.00,0.0,WeatherDisplay:10.37,2013-03-09 02:44:00,
2013-03-08 21:49:00,46.9,44.4,30.17,NE,50,0.0,0.0,91,0.00,CLR,,0.00,0.0,WeatherDisplay:10.37,2013-03-09 02:49:00,
2013-03-08 21:54:00,46.6,44.1,30.17,NE,50,0.0,0.0,91,0.00,CLR,,0.00,0.0,WeatherDisplay:10.37,2013-03-09 02:54:00,
2013-03-08 21:59:00,46.0,43.2,30.18,NE,50,0.0,0.0,90,0.00,CLR,,0.00,0.0,WeatherDisplay:10.37,2013-03-09 02:59:00,
2013-03-08 22:04:00,46.4,43.9,30.18,NE,50,0.0,0.0,91,0.00,FEW,,0.00,0.0,WeatherDisplay:10.37,2013-03-09 03:04:00,
2013-03-08 22:09:00,46.0,43.5,30.18,NE,50,0.0,0.0,91,0.00,FEW,,0.00,0.0,WeatherDisplay:10.37,2013-03-09 03:09:00,
2013-03-08 22:14:00,46.1,43.6,30.18,NE,50,0.0,0.0,91,0.00,FEW,,0.00,0.0,WeatherDisplay:10.37,2013-03-09 03:14:00,
2013-03-08 22:19:00,45.9,43.4,30.18,NE,50,0.0,0.0,91,0.00,FEW,,0.00,0.0,WeatherDisplay:10.37,2013-03-09 03:19:00,
2013-03-08 22:24:00,45.6,43.1,30.18,NE,50,0.0,0.0,91,0.00,FEW,,0.00,0.0,WeatherDisplay:10.37,2013-03-09 03:24:00,
2013-03-08 22:29:00,46.0,43.8,30.18,NE,50,0.0,0.0,92,0.00,FEW,,0.00,0.0,WeatherDisplay:10.37,2013-03-09 03:29:00,
2013-03-08 22:34:00,46.1,43.6,30.18,NE,50,0.0,0.0,91,0.00,FEW,,0.00,0.0,WeatherDisplay:10.37,2013-03-09 03:34:00,
2013-03-08 22:39:00,45.6,43.1,30.18,NE,50,0.0,0.0,91,0.00,FEW,,0.00,0.0,WeatherDisplay:10.37,2013-03-09 03:39:00,
2013-03-08 22:44:00,45.7,43.5,30.17,NE,50,0.0,0.0,92,0.00,FEW,,0.00,0.0,WeatherDisplay:10.37,2013-03-09 03:44:00,
2013-03-08 22:49:00,45.5,43.3,30.17,NE,50,0.0,0.0,92,0.00,FEW,,0.00,0.0,WeatherDisplay:10.37,2013-03-09 03:49:00,
2013-03-08 22:54:00,45.5,43.3,30.17,NE,50,0.0,0.0,92,0.00,FEW,,0.00,0.0,WeatherDisplay:10.37,2013-03-09 03:54:00,
2013-03-08 22:59:00,45.0,42.5,30.18,NE,50,0.0,0.0,91,0.00,FEW,,0.00,0.0,WeatherDisplay:10.37,2013-03-09 03:59:00,
2013-03-08 23:04:00,44.9,42.7,30.18,NE,50,0.0,0.0,92,0.00,FEW,,0.00,0.0,WeatherDisplay:10.37,2013-03-09 04:04:00,
2013-03-08 23:09:00,45.1,42.9,30.18,NE,50,0.0,0.0,92,0.00,FEW,,0.00,0.0,WeatherDisplay:10.37,2013-03-09 04:09:00,
2013-03-08 23:14:00,45.1,42.9,30.17,NE,50,0.0,0.0,92,0.00,FEW,,0.00,0.0,WeatherDisplay:10.37,2013-03-09 04:14:00,
2013-03-08 23:19:00,45.0,42.8,30.17,NE,50,0.0,0.0,92,0.00,FEW,,0.00,0.0,WeatherDisplay:10.37,2013-03-09 04:19:00,
2013-03-08 23:24:00,44.5,42.3,30.17,NE,50,0.0,0.0,92,0.00,FEW,,0.00,0.0,WeatherDisplay:10.37,2013-03-09 04:24:00,
2013-03-08 23:29:00,44.9,42.7,30.17,NE,50,0.0,0.0,92,0.00,FEW,,0.00,0.0,WeatherDisplay:10.37,2013-03-09 04:29:00,
2013-03-08 23:34:00,44.6,42.4,30.17,NE,50,0.0,0.0,92,0.00,FEW,,0.00,0.0,WeatherDisplay:10.37,2013-03-09 04:34:00,
2013-03-08 23:39:00,44.3,42.1,30.17,NE,50,0.0,0.0,92,0.00,FEW,,0.00,0.0,WeatherDisplay:10.37,2013-03-09 04:39:00,
2013-03-08 23:44:00,44.6,42.4,30.16,NE,50,0.0,0.0,92,0.00,FEW,,0.00,0.0,WeatherDisplay:10.37,2013-03-09 04:44:00,
2013-03-08 23:49:00,44.4,42.2,30.16,NE,50,0.0,0.0,92,0.00,FEW,,0.00,0.0,WeatherDisplay:10.37,2013-03-09 04:49:00,
2013-03-08 23:54:00,44.5,42.3,30.16,NE,50,0.0,0.0,92,0.00,FEW,,0.00,0.0,WeatherDisplay:10.37,2013-03-09 04:54:00,
2013-03-08 23:59:00,44.3,42.1,30.16,NE,50,0.0,0.0,92,0.00,FEW,,0.00,0.0,WeatherDisplay:10.37,2013-03-09 04:59:00,